sensor_id;sensor_type;location;lat;lon;timestamp;pressure;altitude;pressure_sealevel;temperature;humidity
14594;BME280;7383;52.354;9.756;2023-05-22T00:02:23;-12821.94;;;21.22;100.00
14594;BME280;7383;52.354;9.756;2023-05-22T00:04:50;-12821.69;;;21.21;100.00
14594;BME280;7383;52.354;9.756;2023-05-22T00:07:17;-12821.53;;;21.20;100.00
14594;BME280;7383;52.354;9.756;2023-05-22T00:09:43;-12821.59;;;21.20;100.00
14594;BME280;7383;52.354;9.756;2023-05-22T00:12:10;-12821.19;;;21.18;100.00
14594;BME280;7383;52.354;9.756;2023-05-22T00:14:37;-12820.66;;;21.15;100.00
14594;BME280;7383;52.354;9.756;2023-05-22T00:17:04;-12820.84;;;21.16;100.00
14594;BME280;7383;52.354;9.756;2023-05-22T00:19:31;-12820.56;;;21.14;100.00
14594;BME280;7383;52.354;9.756;2023-05-22T00:21:58;-12820.22;;;21.12;100.00
14594;BME280;7383;52.354;9.756;2023-05-22T00:24:24;-12820.31;;;21.13;100.00
14594;BME280;7383;52.354;9.756;2023-05-22T00:26:51;-12819.97;;;21.10;100.00
14594;BME280;7383;52.354;9.756;2023-05-22T00:29:17;-12819.88;;;21.10;100.00
14594;BME280;7383;52.354;9.756;2023-05-22T00:31:43;-12819.53;;;21.08;100.00
14594;BME280;7383;52.354;9.756;2023-05-22T00:34:11;-12819.38;;;21.07;100.00
14594;BME280;7383;52.354;9.756;2023-05-22T00:36:38;-12819.47;;;21.07;100.00
14594;BME280;7383;52.354;9.756;2023-05-22T00:39:04;-12819.53;;;21.08;100.00
14594;BME280;7383;52.354;9.756;2023-05-22T00:41:31;-12819.19;;;21.06;100.00
14594;BME280;7383;52.354;9.756;2023-05-22T00:43:59;-12819.03;;;21.05;100.00
14594;BME280;7383;52.354;9.756;2023-05-22T00:46:25;-12818.78;;;21.03;100.00
14594;BME280;7383;52.354;9.756;2023-05-22T00:48:52;-12818.69;;;21.03;100.00
14594;BME280;7383;52.354;9.756;2023-05-22T00:51:20;-12818.69;;;21.03;100.00
14594;BME280;7383;52.354;9.756;2023-05-22T00:53:47;-12818.44;;;21.01;100.00
14594;BME280;7383;52.354;9.756;2023-05-22T00:56:14;-12817.84;;;20.98;100.00
14594;BME280;7383;52.354;9.756;2023-05-22T00:58:41;-12817.47;;;20.96;100.00
14594;BME280;7383;52.354;9.756;2023-05-22T01:01:09;-12817.22;;;20.94;100.00
14594;BME280;7383;52.354;9.756;2023-05-22T01:03:36;-12816.88;;;20.92;100.00
14594;BME280;7383;52.354;9.756;2023-05-22T01:06:09;-12816.72;;;20.91;100.00
14594;BME280;7383;52.354;9.756;2023-05-22T01:08:37;-12816.63;;;20.91;100.00
14594;BME280;7383;52.354;9.756;2023-05-22T01:11:09;-12816.63;;;20.91;100.00
14594;BME280;7383;52.354;9.756;2023-05-22T01:13:43;-12816.53;;;20.90;100.00
14594;BME280;7383;52.354;9.756;2023-05-22T01:16:16;-12816.38;;;20.89;100.00
14594;BME280;7383;52.354;9.756;2023-05-22T01:18:54;-12815.84;;;20.86;100.00
14594;BME280;7383;52.354;9.756;2023-05-22T01:21:28;-12815.59;;;20.85;100.00
14594;BME280;7383;52.354;9.756;2023-05-22T01:24:34;-12815.59;;;20.85;100.00
14594;BME280;7383;52.354;9.756;2023-05-22T01:27:27;-12815.16;;;20.82;100.00
14594;BME280;7383;52.354;9.756;2023-05-22T01:30:16;-12814.81;;;20.80;100.00
14594;BME280;7383;52.354;9.756;2023-05-22T01:32:45;-12814.31;;;20.77;100.00
14594;BME280;7383;52.354;9.756;2023-05-22T01:35:15;-12814.22;;;20.77;100.00
14594;BME280;7383;52.354;9.756;2023-05-22T01:37:43;-12813.72;;;20.74;100.00
14594;BME280;7383;52.354;9.756;2023-05-22T01:40:11;-12813.38;;;20.72;100.00
14594;BME280;7383;52.354;9.756;2023-05-22T01:42:39;-12813.28;;;20.71;100.00
14594;BME280;7383;52.354;9.756;2023-05-22T01:45:08;-12812.94;;;20.69;100.00
14594;BME280;7383;52.354;9.756;2023-05-22T01:47:35;-12812.41;;;20.66;100.00
14594;BME280;7383;52.354;9.756;2023-05-22T01:50:03;-12811.72;;;20.62;100.00
14594;BME280;7383;52.354;9.756;2023-05-22T01:52:37;-12811.13;;;20.58;100.00
14594;BME280;7383;52.354;9.756;2023-05-22T01:55:10;-12810.97;;;20.57;100.00
14594;BME280;7383;52.354;9.756;2023-05-22T01:57:44;-12810.69;;;20.56;100.00
14594;BME280;7383;52.354;9.756;2023-05-22T02:00:14;-12810.38;;;20.54;100.00
14594;BME280;7383;52.354;9.756;2023-05-22T02:02:47;-12809.75;;;20.50;100.00
14594;BME280;7383;52.354;9.756;2023-05-22T02:05:16;-12809.69;;;20.50;100.00
14594;BME280;7383;52.354;9.756;2023-05-22T02:07:44;-12809.00;;;20.46;100.00
14594;BME280;7383;52.354;9.756;2023-05-22T02:10:12;-12809.00;;;20.46;100.00
14594;BME280;7383;52.354;9.756;2023-05-22T02:12:39;-12808.63;;;20.44;100.00
14594;BME280;7383;52.354;9.756;2023-05-22T02:15:07;-12807.97;;;20.40;100.00
14594;BME280;7383;52.354;9.756;2023-05-22T02:17:36;-12807.63;;;20.38;100.00
14594;BME280;7383;52.354;9.756;2023-05-22T02:20:05;-12807.00;;;20.34;100.00
14594;BME280;7383;52.354;9.756;2023-05-22T02:22:40;-12805.81;;;20.27;100.00
14594;BME280;7383;52.354;9.756;2023-05-22T02:25:08;-12805.63;;;20.26;100.00
14594;BME280;7383;52.354;9.756;2023-05-22T02:27:39;-12805.53;;;20.26;100.00
14594;BME280;7383;52.354;9.756;2023-05-22T02:30:07;-12804.94;;;20.22;100.00
14594;BME280;7383;52.354;9.756;2023-05-22T02:32:34;-12804.78;;;20.21;100.00
14594;BME280;7383;52.354;9.756;2023-05-22T02:35:00;-12804.69;;;20.21;100.00
14594;BME280;7383;52.354;9.756;2023-05-22T02:37:27;-12804.16;;;20.18;100.00
14594;BME280;7383;52.354;9.756;2023-05-22T02:39:58;-12803.91;;;20.16;100.00
14594;BME280;7383;52.354;9.756;2023-05-22T02:42:24;-12803.13;;;20.11;100.00
14594;BME280;7383;52.354;9.756;2023-05-22T02:44:51;-12802.88;;;20.10;100.00
14594;BME280;7383;52.354;9.756;2023-05-22T02:47:17;-12802.19;;;20.06;100.00
14594;BME280;7383;52.354;9.756;2023-05-22T02:49:44;-12802.09;;;20.05;100.00
14594;BME280;7383;52.354;9.756;2023-05-22T02:52:10;-12801.84;;;20.04;100.00
14594;BME280;7383;52.354;9.756;2023-05-22T02:54:37;-12800.72;;;19.97;100.00
14594;BME280;7383;52.354;9.756;2023-05-22T02:57:05;-12801.16;;;20.00;100.00
14594;BME280;7383;52.354;9.756;2023-05-22T02:59:31;-12800.56;;;19.96;100.00
14594;BME280;7383;52.354;9.756;2023-05-22T03:02:00;-12800.38;;;19.95;100.00
14594;BME280;7383;52.354;9.756;2023-05-22T03:04:26;-12800.31;;;19.95;100.00
14594;BME280;7383;52.354;9.756;2023-05-22T03:06:53;-12799.88;;;19.92;100.00
14594;BME280;7383;52.354;9.756;2023-05-22T03:09:20;-12799.88;;;19.92;100.00
14594;BME280;7383;52.354;9.756;2023-05-22T03:11:46;-12799.78;;;19.92;100.00
14594;BME280;7383;52.354;9.756;2023-05-22T03:14:14;-12799.88;;;19.92;100.00
14594;BME280;7383;52.354;9.756;2023-05-22T03:16:41;-12799.78;;;19.92;100.00
14594;BME280;7383;52.354;9.756;2023-05-22T03:19:08;-12799.69;;;19.91;100.00
14594;BME280;7383;52.354;9.756;2023-05-22T03:21:35;-12799.69;;;19.91;100.00
14594;BME280;7383;52.354;9.756;2023-05-22T03:24:01;-12799.97;;;19.93;100.00
14594;BME280;7383;52.354;9.756;2023-05-22T03:26:28;-12799.88;;;19.92;100.00
14594;BME280;7383;52.354;9.756;2023-05-22T03:28:54;-12799.53;;;19.90;100.00
14594;BME280;7383;52.354;9.756;2023-05-22T03:31:23;-12798.84;;;19.86;100.00
14594;BME280;7383;52.354;9.756;2023-05-22T03:33:50;-12798.50;;;19.84;100.00
14594;BME280;7383;52.354;9.756;2023-05-22T03:36:17;-12798.31;;;19.83;100.00
14594;BME280;7383;52.354;9.756;2023-05-22T03:38:43;-12798.25;;;19.83;100.00
14594;BME280;7383;52.354;9.756;2023-05-22T03:41:12;-12798.16;;;19.82;100.00
14594;BME280;7383;52.354;9.756;2023-05-22T03:43:38;-12797.91;;;19.81;100.00
14594;BME280;7383;52.354;9.756;2023-05-22T03:46:05;-12797.91;;;19.81;100.00
14594;BME280;7383;52.354;9.756;2023-05-22T03:48:33;-12797.81;;;19.80;100.00
14594;BME280;7383;52.354;9.756;2023-05-22T03:51:00;-12797.91;;;19.81;100.00
14594;BME280;7383;52.354;9.756;2023-05-22T03:53:26;-12797.47;;;19.78;100.00
14594;BME280;7383;52.354;9.756;2023-05-22T03:55:52;-12797.47;;;19.78;100.00
14594;BME280;7383;52.354;9.756;2023-05-22T03:58:19;-12797.56;;;19.79;100.00
14594;BME280;7383;52.354;9.756;2023-05-22T04:00:45;-12797.03;;;19.76;100.00
14594;BME280;7383;52.354;9.756;2023-05-22T04:03:12;-12797.47;;;19.78;100.00
14594;BME280;7383;52.354;9.756;2023-05-22T04:05:40;-12797.72;;;19.80;100.00
14594;BME280;7383;52.354;9.756;2023-05-22T04:08:06;-12797.47;;;19.78;100.00
14594;BME280;7383;52.354;9.756;2023-05-22T04:10:33;-12797.97;;;19.81;100.00
14594;BME280;7383;52.354;9.756;2023-05-22T04:13:02;-12797.72;;;19.80;100.00
14594;BME280;7383;52.354;9.756;2023-05-22T04:15:29;-12797.63;;;19.79;100.00
14594;BME280;7383;52.354;9.756;2023-05-22T04:17:58;-12797.91;;;19.81;100.00
14594;BME280;7383;52.354;9.756;2023-05-22T04:20:25;-12797.91;;;19.81;100.00
14594;BME280;7383;52.354;9.756;2023-05-22T04:22:52;-12798.75;;;19.86;100.00
14594;BME280;7383;52.354;9.756;2023-05-22T04:25:19;-12799.00;;;19.87;100.00
14594;BME280;7383;52.354;9.756;2023-05-22T04:27:45;-12799.00;;;19.87;100.00
14594;BME280;7383;52.354;9.756;2023-05-22T04:30:14;-12799.00;;;19.87;100.00
14594;BME280;7383;52.354;9.756;2023-05-22T04:32:41;-12798.59;;;19.85;100.00
14594;BME280;7383;52.354;9.756;2023-05-22T04:35:08;-12799.53;;;19.90;100.00
14594;BME280;7383;52.354;9.756;2023-05-22T04:37:36;-12799.78;;;19.92;100.00
14594;BME280;7383;52.354;9.756;2023-05-22T04:40:07;-12800.31;;;19.95;100.00
14594;BME280;7383;52.354;9.756;2023-05-22T04:42:36;-12800.72;;;19.97;100.00
14594;BME280;7383;52.354;9.756;2023-05-22T04:45:03;-12800.81;;;19.98;100.00
14594;BME280;7383;52.354;9.756;2023-05-22T04:47:29;-12800.91;;;19.98;100.00
14594;BME280;7383;52.354;9.756;2023-05-22T04:49:56;-12801.75;;;20.03;100.00
14594;BME280;7383;52.354;9.756;2023-05-22T04:52:24;-12801.69;;;20.03;100.00
14594;BME280;7383;52.354;9.756;2023-05-22T04:54:50;-12802.09;;;20.05;100.00
14594;BME280;7383;52.354;9.756;2023-05-22T04:57:18;-12802.19;;;20.06;100.00
14594;BME280;7383;52.354;9.756;2023-05-22T04:59:46;-12802.53;;;20.08;100.00
14594;BME280;7383;52.354;9.756;2023-05-22T05:02:13;-12802.53;;;20.08;100.00
14594;BME280;7383;52.354;9.756;2023-05-22T05:04:39;-12803.06;;;20.11;100.00
14594;BME280;7383;52.354;9.756;2023-05-22T05:07:07;-12802.97;;;20.10;100.00
14594;BME280;7383;52.354;9.756;2023-05-22T05:09:34;-12803.31;;;20.12;100.00
14594;BME280;7383;52.354;9.756;2023-05-22T05:12:01;-12803.06;;;20.11;100.00
14594;BME280;7383;52.354;9.756;2023-05-22T05:14:30;-12803.66;;;20.14;100.00
14594;BME280;7383;52.354;9.756;2023-05-22T05:16:57;-12803.91;;;20.16;100.00
14594;BME280;7383;52.354;9.756;2023-05-22T05:19:23;-12804.25;;;20.18;100.00
14594;BME280;7383;52.354;9.756;2023-05-22T05:21:50;-12804.44;;;20.19;100.00
14594;BME280;7383;52.354;9.756;2023-05-22T05:24:16;-12804.94;;;20.22;100.00
14594;BME280;7383;52.354;9.756;2023-05-22T05:26:43;-12805.38;;;20.25;100.00
14594;BME280;7383;52.354;9.756;2023-05-22T05:29:10;-12805.28;;;20.24;100.00
14594;BME280;7383;52.354;9.756;2023-05-22T05:31:38;-12805.81;;;20.27;100.00
14594;BME280;7383;52.354;9.756;2023-05-22T05:34:04;-12806.41;;;20.31;100.00
14594;BME280;7383;52.354;9.756;2023-05-22T05:36:31;-12806.84;;;20.33;100.00
14594;BME280;7383;52.354;9.756;2023-05-22T05:38:57;-12807.19;;;20.35;100.00
14594;BME280;7383;52.354;9.756;2023-05-22T05:41:26;-12807.53;;;20.37;100.00
14594;BME280;7383;52.354;9.756;2023-05-22T05:43:52;-12808.22;;;20.41;100.00
14594;BME280;7383;52.354;9.756;2023-05-22T05:46:21;-12808.81;;;20.45;100.00
14594;BME280;7383;52.354;9.756;2023-05-22T05:48:49;-12808.63;;;20.44;100.00
14594;BME280;7383;52.354;9.756;2023-05-22T05:51:16;-12809.06;;;20.46;100.00
14594;BME280;7383;52.354;9.756;2023-05-22T05:53:42;-12809.31;;;20.48;100.00
14594;BME280;7383;52.354;9.756;2023-05-22T05:56:09;-12809.69;;;20.50;100.00
14594;BME280;7383;52.354;9.756;2023-05-22T05:58:35;-12810.28;;;20.53;100.00
14594;BME280;7383;52.354;9.756;2023-05-22T06:01:02;-12809.94;;;20.51;100.00
14594;BME280;7383;52.354;9.756;2023-05-22T06:03:29;-12810.28;;;20.53;100.00
14594;BME280;7383;52.354;9.756;2023-05-22T06:05:56;-12810.38;;;20.54;100.00
14594;BME280;7383;52.354;9.756;2023-05-22T06:08:23;-12810.78;;;20.56;100.00
14594;BME280;7383;52.354;9.756;2023-05-22T06:10:50;-12811.31;;;20.59;100.00
14594;BME280;7383;52.354;9.756;2023-05-22T06:13:16;-12811.66;;;20.61;100.00
14594;BME280;7383;52.354;9.756;2023-05-22T06:15:42;-12811.72;;;20.62;100.00
14594;BME280;7383;52.354;9.756;2023-05-22T06:18:09;-12812.34;;;20.66;100.00
14594;BME280;7383;52.354;9.756;2023-05-22T06:20:36;-12812.75;;;20.68;100.00
14594;BME280;7383;52.354;9.756;2023-05-22T06:23:04;-12813.03;;;20.70;100.00
14594;BME280;7383;52.354;9.756;2023-05-22T06:25:31;-12814.22;;;20.77;100.00
14594;BME280;7383;52.354;9.756;2023-05-22T06:27:57;-12814.91;;;20.81;100.00
14594;BME280;7383;52.354;9.756;2023-05-22T06:30:25;-12814.81;;;20.80;100.00
14594;BME280;7383;52.354;9.756;2023-05-22T06:32:51;-12815.78;;;20.86;100.00
14594;BME280;7383;52.354;9.756;2023-05-22T06:35:18;-12816.38;;;20.89;100.00
14594;BME280;7383;52.354;9.756;2023-05-22T06:37:44;-12816.88;;;20.92;100.00
14594;BME280;7383;52.354;9.756;2023-05-22T06:40:12;-12817.31;;;20.95;100.00
14594;BME280;7383;52.354;9.756;2023-05-22T06:42:39;-12817.91;;;20.98;100.00
14594;BME280;7383;52.354;9.756;2023-05-22T06:45:06;-12818.94;;;21.04;100.00
14594;BME280;7383;52.354;9.756;2023-05-22T06:47:33;-12819.63;;;21.08;100.00
14594;BME280;7383;52.354;9.756;2023-05-22T06:49:59;-12820.22;;;21.12;100.00
14594;BME280;7383;52.354;9.756;2023-05-22T06:52:26;-12820.66;;;21.15;100.00
14594;BME280;7383;52.354;9.756;2023-05-22T06:54:52;-12820.91;;;21.16;100.00
14594;BME280;7383;52.354;9.756;2023-05-22T06:57:20;-12822.03;;;21.23;100.00
14594;BME280;7383;52.354;9.756;2023-05-22T06:59:48;-12822.72;;;21.27;100.00
14594;BME280;7383;52.354;9.756;2023-05-22T07:02:14;-12822.81;;;21.27;100.00
14594;BME280;7383;52.354;9.756;2023-05-22T07:04:41;-12822.56;;;21.26;100.00
14594;BME280;7383;52.354;9.756;2023-05-22T07:07:08;-12822.56;;;21.26;100.00
14594;BME280;7383;52.354;9.756;2023-05-22T07:09:35;-12822.56;;;21.26;100.00
14594;BME280;7383;52.354;9.756;2023-05-22T07:12:02;-12821.88;;;21.22;100.00
14594;BME280;7383;52.354;9.756;2023-05-22T07:14:29;-12822.28;;;21.24;100.00
14594;BME280;7383;52.354;9.756;2023-05-22T07:16:56;-12822.56;;;21.26;100.00
14594;BME280;7383;52.354;9.756;2023-05-22T07:19:22;-12823.25;;;21.30;100.00
14594;BME280;7383;52.354;9.756;2023-05-22T07:21:48;-12823.50;;;21.31;100.00
14594;BME280;7383;52.354;9.756;2023-05-22T07:24:15;-12823.91;;;21.34;100.00
14594;BME280;7383;52.354;9.756;2023-05-22T07:26:41;-12824.19;;;21.35;100.00
14594;BME280;7383;52.354;9.756;2023-05-22T07:29:10;-12824.44;;;21.37;100.00
14594;BME280;7383;52.354;9.756;2023-05-22T07:31:41;-12825.22;;;21.41;100.00
14594;BME280;7383;52.354;9.756;2023-05-22T07:34:07;-12826.41;;;21.48;100.00
14594;BME280;7383;52.354;9.756;2023-05-22T07:36:34;-12827.00;;;21.52;100.00
14594;BME280;7383;52.354;9.756;2023-05-22T07:39:00;-12827.78;;;21.56;100.00
14594;BME280;7383;52.354;9.756;2023-05-22T07:41:29;-12828.81;;;21.63;100.00
14594;BME280;7383;52.354;9.756;2023-05-22T07:43:55;-12829.91;;;21.69;100.00
14594;BME280;7383;52.354;9.756;2023-05-22T07:46:22;-12830.88;;;21.75;100.00
14594;BME280;7383;52.354;9.756;2023-05-22T07:48:50;-12831.91;;;21.81;100.00
14594;BME280;7383;52.354;9.756;2023-05-22T07:51:16;-12832.59;;;21.85;100.00
14594;BME280;7383;52.354;9.756;2023-05-22T07:53:43;-12833.00;;;21.87;100.00
14594;BME280;7383;52.354;9.756;2023-05-22T07:56:09;-12833.53;;;21.90;100.00
14594;BME280;7383;52.354;9.756;2023-05-22T07:58:36;-12834.13;;;21.94;100.00
14594;BME280;7383;52.354;9.756;2023-05-22T08:01:04;-12834.13;;;21.94;100.00
14594;BME280;7383;52.354;9.756;2023-05-22T08:03:30;-12834.13;;;21.94;100.00
14594;BME280;7383;52.354;9.756;2023-05-22T08:05:58;-12833.88;;;21.92;100.00
14594;BME280;7383;52.354;9.756;2023-05-22T08:08:24;-12834.03;;;21.93;100.00
14594;BME280;7383;52.354;9.756;2023-05-22T08:10:51;-12834.97;;;21.99;100.00
14594;BME280;7383;52.354;9.756;2023-05-22T08:13:17;-12835.75;;;22.03;100.00
14594;BME280;7383;52.354;9.756;2023-05-22T08:15:44;-12837.03;;;22.11;100.00
14594;BME280;7383;52.354;9.756;2023-05-22T08:18:10;-12837.47;;;22.14;100.00
14594;BME280;7383;52.354;9.756;2023-05-22T08:20:37;-12838.16;;;22.18;100.00
14594;BME280;7383;52.354;9.756;2023-05-22T08:23:05;-12838.84;;;22.22;100.00
14594;BME280;7383;52.354;9.756;2023-05-22T08:25:32;-12839.59;;;22.26;100.00
14594;BME280;7383;52.354;9.756;2023-05-22T08:27:58;-12840.47;;;22.31;100.00
14594;BME280;7383;52.354;9.756;2023-05-22T08:30:24;-12841.16;;;22.35;100.00
14594;BME280;7383;52.354;9.756;2023-05-22T08:32:51;-12841.66;;;22.38;100.00
14594;BME280;7383;52.354;9.756;2023-05-22T08:35:18;-12842.34;;;22.42;100.00
14594;BME280;7383;52.354;9.756;2023-05-22T08:37:48;-12842.84;;;22.45;100.00
14594;BME280;7383;52.354;9.756;2023-05-22T08:40:19;-12843.63;;;22.50;100.00
14594;BME280;7383;52.354;9.756;2023-05-22T08:42:45;-12844.75;;;22.56;100.00
14594;BME280;7383;52.354;9.756;2023-05-22T08:45:12;-12845.59;;;22.62;100.00
14594;BME280;7383;52.354;9.756;2023-05-22T08:47:41;-12846.38;;;22.66;100.00
14594;BME280;7383;52.354;9.756;2023-05-22T08:50:10;-12847.22;;;22.71;100.00
14594;BME280;7383;52.354;9.756;2023-05-22T08:52:43;-12848.00;;;22.76;100.00
14594;BME280;7383;52.354;9.756;2023-05-22T08:55:12;-12848.59;;;22.79;100.00
14594;BME280;7383;52.354;9.756;2023-05-22T08:57:41;-12849.63;;;22.85;100.00
14594;BME280;7383;52.354;9.756;2023-05-22T09:00:08;-12850.38;;;22.90;100.00
14594;BME280;7383;52.354;9.756;2023-05-22T09:02:36;-12851.31;;;22.95;100.00
14594;BME280;7383;52.354;9.756;2023-05-22T09:05:06;-12851.84;;;22.98;100.00
14594;BME280;7383;52.354;9.756;2023-05-22T09:07:33;-12852.25;;;23.01;100.00
14594;BME280;7383;52.354;9.756;2023-05-22T09:09:59;-12853.03;;;23.05;100.00
14594;BME280;7383;52.354;9.756;2023-05-22T09:12:30;-12854.22;;;23.13;100.00
14594;BME280;7383;52.354;9.756;2023-05-22T09:15:04;-12855.34;;;23.19;100.00
14594;BME280;7383;52.354;9.756;2023-05-22T09:17:32;-12856.28;;;23.25;100.00
14594;BME280;7383;52.354;9.756;2023-05-22T09:19:59;-12857.47;;;23.32;100.00
14594;BME280;7383;52.354;9.756;2023-05-22T09:22:34;-12859.19;;;23.42;100.00
14594;BME280;7383;52.354;9.756;2023-05-22T09:25:00;-12859.97;;;23.46;100.00
14594;BME280;7383;52.354;9.756;2023-05-22T09:27:26;-12861.41;;;23.55;100.00
14594;BME280;7383;52.354;9.756;2023-05-22T09:29:55;-12862.78;;;23.63;100.00
14594;BME280;7383;52.354;9.756;2023-05-22T09:32:23;-12863.63;;;23.68;100.00
14594;BME280;7383;52.354;9.756;2023-05-22T09:34:50;-12864.31;;;23.72;100.00
14594;BME280;7383;52.354;9.756;2023-05-22T09:37:17;-12864.81;;;23.75;100.00
14594;BME280;7383;52.354;9.756;2023-05-22T09:39:44;-12865.75;;;23.81;100.00
14594;BME280;7383;52.354;9.756;2023-05-22T09:42:14;-12866.72;;;23.86;100.00
14594;BME280;7383;52.354;9.756;2023-05-22T09:44:46;-12867.91;;;23.93;100.00
14594;BME280;7383;52.354;9.756;2023-05-22T09:47:14;-12868.31;;;23.96;100.00
14594;BME280;7383;52.354;9.756;2023-05-22T09:49:43;-12868.00;;;23.94;100.00
14594;BME280;7383;52.354;9.756;2023-05-22T09:52:10;-12867.81;;;23.93;100.00
14594;BME280;7383;52.354;9.756;2023-05-22T09:54:44;-12868.25;;;23.95;100.00
14594;BME280;7383;52.354;9.756;2023-05-22T09:57:16;-12868.59;;;23.97;100.00
14594;BME280;7383;52.354;9.756;2023-05-22T09:59:46;-12869.88;;;24.05;100.00
14594;BME280;7383;52.354;9.756;2023-05-22T10:02:17;-12871.06;;;24.12;100.00
14594;BME280;7383;52.354;9.756;2023-05-22T10:04:47;-12872.44;;;24.20;100.00
14594;BME280;7383;52.354;9.756;2023-05-22T10:07:17;-12872.84;;;24.23;100.00
14594;BME280;7383;52.354;9.756;2023-05-22T10:09:50;-12873.38;;;24.26;100.00
14594;BME280;7383;52.354;9.756;2023-05-22T10:12:19;-12873.88;;;24.29;100.00
14594;BME280;7383;52.354;9.756;2023-05-22T10:14:46;-12873.78;;;24.28;100.00
14594;BME280;7383;52.354;9.756;2023-05-22T10:17:14;-12874.81;;;24.34;100.00
14594;BME280;7383;52.354;9.756;2023-05-22T10:19:41;-12875.75;;;24.40;100.00
14594;BME280;7383;52.354;9.756;2023-05-22T10:22:10;-12877.03;;;24.47;100.00
14594;BME280;7383;52.354;9.756;2023-05-22T10:24:45;-12877.97;;;24.53;100.00
14594;BME280;7383;52.354;9.756;2023-05-22T10:27:12;-12878.66;;;24.57;100.00
14594;BME280;7383;52.354;9.756;2023-05-22T10:29:43;-12879.16;;;24.60;100.00
14594;BME280;7383;52.354;9.756;2023-05-22T10:32:14;-12879.59;;;24.63;100.00
14594;BME280;7383;52.354;9.756;2023-05-22T10:34:49;-12880.94;;;24.71;100.00
14594;BME280;7383;52.354;9.756;2023-05-22T10:37:30;-12882.22;;;24.78;100.00
14594;BME280;7383;52.354;9.756;2023-05-22T10:40:07;-12883.16;;;24.84;100.00
14594;BME280;7383;52.354;9.756;2023-05-22T10:42:36;-12884.44;;;24.91;100.00
14594;BME280;7383;52.354;9.756;2023-05-22T10:45:05;-12885.28;;;24.96;100.00
14594;BME280;7383;52.354;9.756;2023-05-22T10:47:32;-12885.47;;;24.97;100.00
14594;BME280;7383;52.354;9.756;2023-05-22T10:50:03;-12886.41;;;25.03;100.00
14594;BME280;7383;52.354;9.756;2023-05-22T10:52:31;-12886.66;;;25.05;100.00
14594;BME280;7383;52.354;9.756;2023-05-22T10:54:59;-12887.16;;;25.08;100.00
14594;BME280;7383;52.354;9.756;2023-05-22T10:57:26;-12887.59;;;25.10;100.00
14594;BME280;7383;52.354;9.756;2023-05-22T11:00:08;-12888.53;;;25.16;100.00
14594;BME280;7383;52.354;9.756;2023-05-22T11:02:40;-12889.22;;;25.20;100.00
14594;BME280;7383;52.354;9.756;2023-05-22T11:05:31;-12890.41;;;25.27;100.00
14594;BME280;7383;52.354;9.756;2023-05-22T11:08:09;-12890.50;;;25.27;100.00
14594;BME280;7383;52.354;9.756;2023-05-22T11:10:51;-12890.31;;;25.26;100.00
14594;BME280;7383;52.354;9.756;2023-05-22T11:13:19;-12889.72;;;25.23;100.00
14594;BME280;7383;52.354;9.756;2023-05-22T11:15:45;-12889.97;;;25.24;100.00
14594;BME280;7383;52.354;9.756;2023-05-22T11:18:12;-12890.84;;;25.29;100.00
14594;BME280;7383;52.354;9.756;2023-05-22T11:20:39;-12892.19;;;25.37;100.00
14594;BME280;7383;52.354;9.756;2023-05-22T11:23:06;-12894.16;;;25.49;100.00
14594;BME280;7383;52.354;9.756;2023-05-22T11:25:35;-12895.53;;;25.57;100.00
14594;BME280;7383;52.354;9.756;2023-05-22T11:28:04;-12897.56;;;25.69;100.00
14594;BME280;7383;52.354;9.756;2023-05-22T11:30:31;-12899.34;;;25.80;100.00
14594;BME280;7383;52.354;9.756;2023-05-22T11:32:59;-12900.44;;;25.86;100.00
14594;BME280;7383;52.354;9.756;2023-05-22T11:35:26;-12901.47;;;25.92;100.00
14594;BME280;7383;52.354;9.756;2023-05-22T11:37:54;-12901.81;;;25.94;100.00
14594;BME280;7383;52.354;9.756;2023-05-22T11:40:21;-12900.78;;;25.88;100.00
14594;BME280;7383;52.354;9.756;2023-05-22T11:42:50;-12900.97;;;25.89;100.00
14594;BME280;7383;52.354;9.756;2023-05-22T11:45:17;-12901.47;;;25.92;100.00
14594;BME280;7383;52.354;9.756;2023-05-22T11:47:44;-12903.00;;;26.02;100.00
14594;BME280;7383;52.354;9.756;2023-05-22T11:50:11;-12904.78;;;26.12;100.00
14594;BME280;7383;52.354;9.756;2023-05-22T11:52:39;-12905.97;;;26.19;100.00
14594;BME280;7383;52.354;9.756;2023-05-22T11:55:07;-12907.34;;;26.27;100.00
14594;BME280;7383;52.354;9.756;2023-05-22T11:57:35;-12909.19;;;26.38;100.00
14594;BME280;7383;52.354;9.756;2023-05-22T12:00:04;-12911.00;;;26.49;100.00
14594;BME280;7383;52.354;9.756;2023-05-22T12:02:32;-12912.25;;;26.57;100.00
14594;BME280;7383;52.354;9.756;2023-05-22T12:04:58;-12913.53;;;26.64;100.00
14594;BME280;7383;52.354;9.756;2023-05-22T12:07:25;-12914.81;;;26.72;100.00
14594;BME280;7383;52.354;9.756;2023-05-22T12:09:55;-12916.59;;;26.82;100.00
14594;BME280;7383;52.354;9.756;2023-05-22T12:12:22;-12917.53;;;26.88;100.00
14594;BME280;7383;52.354;9.756;2023-05-22T12:14:48;-12919.13;;;26.98;100.00
14594;BME280;7383;52.354;9.756;2023-05-22T12:17:16;-12920.56;;;27.06;100.00
14594;BME280;7383;52.354;9.756;2023-05-22T12:19:43;-12921.69;;;27.13;100.00
14594;BME280;7383;52.354;9.756;2023-05-22T12:22:11;-12923.38;;;27.23;100.00
14594;BME280;7383;52.354;9.756;2023-05-22T12:24:38;-12925.34;;;27.34;100.00
14594;BME280;7383;52.354;9.756;2023-05-22T12:27:07;-12926.94;;;27.44;100.00
14594;BME280;7383;52.354;9.756;2023-05-22T12:29:34;-12929.16;;;27.57;100.00
14594;BME280;7383;52.354;9.756;2023-05-22T12:32:01;-12931.50;;;27.71;100.00
14594;BME280;7383;52.354;9.756;2023-05-22T12:34:32;-12933.81;;;27.85;100.00
14594;BME280;7383;52.354;9.756;2023-05-22T12:36:59;-12935.25;;;27.94;100.00
14594;BME280;7383;52.354;9.756;2023-05-22T12:39:26;-12936.50;;;28.01;100.00
14594;BME280;7383;52.354;9.756;2023-05-22T12:41:53;-12938.81;;;28.15;100.00
14594;BME280;7383;52.354;9.756;2023-05-22T12:44:19;-12941.09;;;28.28;100.00
14594;BME280;7383;52.354;9.756;2023-05-22T12:46:47;-12942.19;;;28.35;100.00
14594;BME280;7383;52.354;9.756;2023-05-22T12:49:13;-12943.63;;;28.44;100.00
14594;BME280;7383;52.354;9.756;2023-05-22T12:51:41;-12944.72;;;28.50;100.00
14594;BME280;7383;52.354;9.756;2023-05-22T12:54:08;-12945.06;;;28.52;100.00
14594;BME280;7383;52.354;9.756;2023-05-22T12:56:34;-12945.47;;;28.55;100.00